createdAt,value
2018-03-27T00:01:05.127Z,99062.13
2018-03-27T00:03:38.753Z,99057.16
2018-03-27T00:06:12.394Z,99057.44
2018-03-27T00:08:45.982Z,99059.33
2018-03-27T00:11:19.557Z,99061.75
2018-03-27T00:13:53.233Z,99058.80
2018-03-27T00:16:26.900Z,99057.22
2018-03-27T00:19:00.425Z,99055.30
2018-03-27T00:21:33.947Z,99058.65
2018-03-27T00:24:07.453Z,99047.09
2018-03-27T00:26:53.050Z,99055.02
2018-03-27T00:29:38.707Z,99054.48
2018-03-27T00:32:24.416Z,99062.55
2018-03-27T00:35:10.050Z,99064.69
2018-03-27T00:37:55.704Z,99058.76
2018-03-27T00:40:41.193Z,99060.89
2018-03-27T00:43:14.962Z,99061.84
2018-03-27T00:45:48.631Z,99063.72
2018-03-27T00:48:22.236Z,99063.72
2018-03-27T00:50:55.842Z,99067.22
2018-03-27T00:53:29.552Z,99067.76
2018-03-27T00:56:06.186Z,99059.16
2018-03-27T00:58:39.850Z,99057.80
2018-03-27T01:01:13.426Z,99053.58
2018-03-27T01:03:47.179Z,99051.95
2018-03-27T01:06:20.799Z,99046.41
2018-03-27T01:08:54.346Z,99050.41
2018-03-27T01:11:27.920Z,99050.13
2018-03-27T01:14:01.620Z,99046.98
2018-03-27T01:16:35.223Z,99047.36
2018-03-27T01:19:08.741Z,99043.03
2018-03-27T01:21:42.333Z,99042.88
2018-03-27T01:24:15.978Z,99037.43
2018-03-27T01:26:52.596Z,99042.66
2018-03-27T01:29:26.215Z,99036.20
2018-03-27T01:31:59.738Z,99033.20
2018-03-27T01:34:33.448Z,99033.56
2018-03-27T01:37:06.965Z,99031.94
2018-03-27T01:39:40.531Z,99032.45
2018-03-27T01:42:14.148Z,99028.48
2018-03-27T01:44:47.753Z,99016.87
2018-03-27T01:47:21.397Z,99020.90
2018-03-27T01:49:55.040Z,99028.61
2018-03-27T01:52:28.789Z,99029.30
2018-03-27T01:55:03.080Z,99027.78
2018-03-27T01:57:36.665Z,99022.05
2018-03-27T02:00:10.304Z,99024.73
2018-03-27T02:02:43.966Z,99017.48
2018-03-27T02:05:17.521Z,99012.34
2018-03-27T02:07:51.137Z,99011.88
2018-03-27T02:10:24.755Z,99007.48
2018-03-27T02:13:04.067Z,99008.92
2018-03-27T02:15:43.583Z,99011.38
2018-03-27T02:18:22.789Z,99005.78
2018-03-27T02:21:02.065Z,99010.55
2018-03-27T02:23:35.791Z,99009.61
2018-03-27T02:26:09.445Z,99005.16
2018-03-27T02:28:43.008Z,99004.48
2018-03-27T02:31:16.672Z,99008.36
2018-03-27T02:33:50.334Z,99009.95
2018-03-27T02:36:23.897Z,99008.16
2018-03-27T02:38:57.552Z,99005.19
2018-03-27T02:41:31.174Z,99002.66
2018-03-27T02:44:04.808Z,99003.33
2018-03-27T02:46:38.503Z,98995.87
2018-03-27T02:49:12.053Z,98999.72
2018-03-27T02:51:45.756Z,99001.80
2018-03-27T02:54:19.412Z,98997.68
2018-03-27T02:56:53.053Z,98994.27
2018-03-27T02:59:26.657Z,99002.59
2018-03-27T03:02:00.231Z,98997.10
2018-03-27T03:04:33.865Z,98994.58
2018-03-27T03:07:07.446Z,99003.34
2018-03-27T03:09:41.026Z,98998.80
2018-03-27T03:12:14.632Z,98996.14
2018-03-27T03:14:48.405Z,98996.52
2018-03-27T03:17:21.962Z,98988.36
2018-03-27T03:19:55.478Z,98994.20
2018-03-27T03:22:29.090Z,98997.86
2018-03-27T03:25:02.670Z,98999.56
2018-03-27T03:27:36.279Z,98994.63
2018-03-27T03:30:10.003Z,98998.93
2018-03-27T03:32:43.616Z,98986.36
2018-03-27T03:35:17.358Z,98984.37
2018-03-27T03:37:50.952Z,98986.59
2018-03-27T03:40:24.493Z,98989.38
2018-03-27T03:42:58.233Z,98982.98
2018-03-27T03:45:31.868Z,98985.85
2018-03-27T03:48:05.631Z,98990.70
2018-03-27T03:50:39.289Z,98982.92
2018-03-27T03:53:12.856Z,98988.94
2018-03-27T03:55:46.548Z,98985.25
2018-03-27T03:58:20.171Z,98983.77
2018-03-27T04:00:53.735Z,98987.78
2018-03-27T04:03:27.274Z,98978.86
2018-03-27T04:06:00.964Z,98985.75
2018-03-27T04:08:34.507Z,98984.21
2018-03-27T04:11:08.127Z,98979.28
2018-03-27T04:13:41.668Z,98980.47
2018-03-27T04:16:15.303Z,98978.63
2018-03-27T04:18:48.839Z,98982.41
2018-03-27T04:21:22.373Z,98979.16
2018-03-27T04:23:56.068Z,98976.71
2018-03-27T04:26:29.567Z,98977.47
2018-03-27T04:29:03.279Z,98973.36
2018-03-27T04:31:36.799Z,98975.04
2018-03-27T04:34:10.343Z,98966.01
2018-03-27T04:36:44.037Z,98969.14
2018-03-27T04:39:17.672Z,98961.05
2018-03-27T04:41:51.332Z,98961.25
2018-03-27T04:44:25.090Z,98960.67
2018-03-27T04:46:58.722Z,98959.96
2018-03-27T04:49:32.370Z,98959.61
2018-03-27T04:52:05.914Z,98959.38
2018-03-27T04:54:39.591Z,98956.27
2018-03-27T04:57:13.287Z,98950.77
2018-03-27T04:59:46.900Z,98950.11
2018-03-27T05:02:20.500Z,98958.44
2018-03-27T05:04:54.059Z,98956.31
2018-03-27T05:07:27.644Z,98949.91
2018-03-27T05:10:01.386Z,98949.33
2018-03-27T05:12:35.150Z,98944.42
2018-03-27T05:15:08.852Z,98946.58
2018-03-27T05:17:42.580Z,98948.31
2018-03-27T05:20:16.163Z,98944.55
2018-03-27T05:22:49.842Z,98945.89
2018-03-27T05:25:23.542Z,98945.17
2018-03-27T05:27:57.408Z,98940.30
2018-03-27T05:30:31.100Z,98941.44
2018-03-27T05:33:04.782Z,98936.76
2018-03-27T05:35:38.537Z,98938.22
2018-03-27T05:38:12.066Z,98937.69
2018-03-27T05:40:45.775Z,98938.78
2018-03-27T05:43:19.252Z,98939.86
2018-03-27T05:45:52.808Z,98937.20
2018-03-27T05:48:26.586Z,98931.59
2018-03-27T05:51:00.281Z,98931.97
2018-03-27T05:53:33.917Z,98937.23
2018-03-27T05:56:07.465Z,98934.47
2018-03-27T05:58:41.101Z,98929.83
2018-03-27T06:01:14.677Z,98922.34
2018-03-27T06:03:48.233Z,98928.24
2018-03-27T06:06:21.820Z,98923.30
2018-03-27T06:08:55.487Z,98920.16
2018-03-27T06:11:29.164Z,98922.52
2018-03-27T06:14:02.770Z,98914.65
2018-03-27T06:16:36.466Z,98917.80
2018-03-27T06:19:10.293Z,98920.31
2018-03-27T06:21:44.000Z,98915.48
2018-03-27T06:24:17.516Z,98912.27
2018-03-27T06:26:51.064Z,98909.06
2018-03-27T06:29:24.663Z,98910.84
2018-03-27T06:31:58.459Z,98910.80
2018-03-27T06:34:32.112Z,98911.64
2018-03-27T06:40:25.194Z,98914.00
2018-03-27T06:42:58.816Z,98908.44
2018-03-27T06:45:32.605Z,98905.95
2018-03-27T06:48:06.243Z,98901.04
2018-03-27T06:50:39.862Z,98906.11
2018-03-27T06:53:13.601Z,98907.77
2018-03-27T06:55:47.315Z,98909.49
2018-03-27T06:58:20.920Z,98903.58
2018-03-27T07:00:54.498Z,98904.53
2018-03-27T07:03:28.156Z,98902.19
2018-03-27T07:06:01.873Z,98901.22
2018-03-27T07:08:35.574Z,98897.42
2018-03-27T07:11:09.126Z,98904.67
2018-03-27T07:13:42.654Z,98902.91
2018-03-27T07:16:16.317Z,98900.58
2018-03-27T07:18:49.867Z,98895.31
2018-03-27T07:21:23.448Z,98898.14
2018-03-27T07:23:57.174Z,98892.67
2018-03-27T07:26:30.733Z,98889.13
2018-03-27T07:29:04.441Z,98887.00
2018-03-27T07:31:38.087Z,98879.69
2018-03-27T07:34:11.768Z,98872.66
2018-03-27T07:37:03.304Z,98880.28
2018-03-27T07:39:36.947Z,98880.55
2018-03-27T07:42:10.627Z,98880.63
2018-03-27T07:44:44.306Z,98880.20
2018-03-27T07:47:17.937Z,98873.87
2018-03-27T07:49:51.592Z,98867.77
2018-03-27T07:52:25.204Z,98858.17
2018-03-27T07:54:58.704Z,98856.68
2018-03-27T07:57:32.315Z,98846.73
2018-03-27T08:00:06.082Z,98841.90
2018-03-27T08:02:39.765Z,98838.55
2018-03-27T08:05:13.412Z,98839.12
2018-03-27T08:07:47.078Z,98835.33
2018-03-27T08:10:20.927Z,98828.55
2018-03-27T08:12:54.608Z,98819.41
2018-03-27T08:15:28.315Z,98812.28
2018-03-27T08:18:01.883Z,98809.83
2018-03-27T08:20:35.719Z,98813.20
2018-03-27T08:23:09.315Z,98804.50
2018-03-27T08:25:43.077Z,98806.69
2018-03-27T08:28:16.748Z,98800.77
2018-03-27T08:30:50.335Z,98796.81
2018-03-27T08:33:24.013Z,98802.13
2018-03-27T08:35:57.661Z,98793.33
2018-03-27T08:38:31.138Z,98787.49
2018-03-27T08:41:04.855Z,98788.07
2018-03-27T08:43:38.643Z,98779.08
2018-03-27T08:46:12.423Z,98786.09
2018-03-27T08:48:46.228Z,98784.19
2018-03-27T08:51:19.859Z,98784.48
2018-03-27T08:53:53.459Z,98782.59
2018-03-27T08:56:27.115Z,98785.21
2018-03-27T08:59:00.818Z,98787.66
2018-03-27T09:01:34.497Z,98775.32
2018-03-27T09:04:08.035Z,98777.88
2018-03-27T09:12:40.186Z,98769.54
2018-03-27T09:15:13.955Z,98768.09
2018-03-27T09:17:47.689Z,98772.16
2018-03-27T09:20:21.237Z,98772.11
2018-03-27T09:22:54.946Z,98753.40
2018-03-27T09:25:28.495Z,98755.77
2018-03-27T09:28:02.125Z,98749.63
2018-03-27T09:30:35.646Z,98742.06
2018-03-27T09:33:09.232Z,98744.08
2018-03-27T09:35:43.174Z,98739.43
2018-03-27T09:38:16.791Z,98733.40
2018-03-27T09:40:50.471Z,98735.13
2018-03-27T09:43:24.144Z,98739.30
2018-03-27T09:45:57.720Z,98734.23
2018-03-27T09:48:31.307Z,98743.22
2018-03-27T09:51:05.081Z,98740.14
2018-03-27T09:53:38.904Z,98734.03
2018-03-27T09:56:12.695Z,98732.36
2018-03-27T09:58:46.356Z,98720.80
2018-03-27T10:04:13.983Z,98719.84
2018-03-27T10:06:47.521Z,98709.03
2018-03-27T10:09:21.108Z,98712.26
2018-03-27T10:11:54.731Z,98713.59
2018-03-27T10:14:28.596Z,98703.97
2018-03-27T10:17:02.239Z,98699.48
2018-03-27T10:19:35.796Z,98699.02
2018-03-27T10:22:09.432Z,98695.92
2018-03-27T10:24:42.956Z,98690.33
2018-03-27T10:27:16.921Z,98695.82
2018-03-27T10:29:50.472Z,98689.21
2018-03-27T10:32:24.026Z,98690.31
2018-03-27T10:34:57.583Z,98674.27
2018-03-27T10:37:31.115Z,98663.42
2018-03-27T10:40:04.934Z,98664.14
2018-03-27T10:42:38.464Z,98661.08
2018-03-27T10:45:12.218Z,98655.83
2018-03-27T10:47:45.828Z,98641.42
2018-03-27T10:50:19.666Z,98635.80
2018-03-27T10:52:53.471Z,98631.02
2018-03-27T10:55:27.026Z,98622.88
2018-03-27T10:58:00.604Z,98620.88
2018-03-27T11:00:34.177Z,98617.84
2018-03-27T11:03:07.713Z,98607.66
2018-03-27T11:05:41.263Z,98604.32
2018-03-27T11:08:14.913Z,98604.48
2018-03-27T11:10:48.525Z,98596.30
2018-03-27T11:13:22.205Z,98589.38
2018-03-27T11:15:55.837Z,98584.25
2018-03-27T11:18:29.664Z,98583.02
2018-03-27T11:21:03.447Z,98582.77
2018-03-27T11:23:37.117Z,98582.05
2018-03-27T11:26:10.794Z,98584.52
2018-03-27T11:28:44.509Z,98566.25
2018-03-27T11:31:18.165Z,98569.55
2018-03-27T11:33:51.733Z,98568.77
2018-03-27T11:36:25.303Z,98562.58
2018-03-27T11:38:58.890Z,98560.45
2018-03-27T11:41:32.508Z,98562.75
2018-03-27T11:44:06.093Z,98554.38
2018-03-27T11:46:39.804Z,98549.34
2018-03-27T11:49:13.547Z,98548.14
2018-03-27T11:51:47.106Z,98552.14
2018-03-27T11:54:20.641Z,98537.59
2018-03-27T11:56:54.193Z,98537.58
2018-03-27T11:59:27.778Z,98536.63
2018-03-27T12:02:01.379Z,98520.78
2018-03-27T12:04:35.083Z,98515.77
2018-03-27T12:07:08.643Z,98508.41
2018-03-27T12:09:42.192Z,98497.97
2018-03-27T12:12:15.788Z,98493.38
2018-03-27T12:14:49.285Z,98502.47
2018-03-27T12:17:22.815Z,98483.48
2018-03-27T12:19:56.390Z,98476.37
2018-03-27T12:22:29.894Z,98481.80
2018-03-27T12:25:03.537Z,98480.91
2018-03-27T12:27:37.094Z,98485.53
2018-03-27T12:30:10.656Z,98476.19
2018-03-27T12:32:44.229Z,98460.42
2018-03-27T12:35:17.754Z,98461.38
2018-03-27T12:37:51.264Z,98457.18
2018-03-27T12:40:24.808Z,98460.41
2018-03-27T12:42:58.388Z,98453.63
2018-03-27T12:45:32.158Z,98445.74
2018-03-27T12:48:05.854Z,98448.84
2018-03-27T12:50:39.558Z,98436.72
2018-03-27T12:53:13.226Z,98436.91
2018-03-27T12:55:47.014Z,98427.92
2018-03-27T12:58:20.666Z,98422.78
2018-03-27T13:00:54.391Z,98423.23
2018-03-27T13:03:27.922Z,98413.45
2018-03-27T13:06:01.626Z,98413.63
2018-03-27T13:08:35.188Z,98405.52
2018-03-27T13:11:08.775Z,98401.94
2018-03-27T13:13:42.394Z,98392.56
2018-03-27T13:16:15.987Z,98394.89
2018-03-27T13:18:49.782Z,98392.27
2018-03-27T13:21:23.583Z,98394.88
2018-03-27T13:23:57.150Z,98389.39
2018-03-27T13:26:30.959Z,98389.23
2018-03-27T13:29:04.642Z,98381.66
2018-03-27T13:31:38.210Z,98375.90
2018-03-27T13:34:11.867Z,98375.27
2018-03-27T13:36:45.454Z,98372.13
2018-03-27T13:39:19.265Z,98371.89
2018-03-27T13:41:52.867Z,98368.16
2018-03-27T13:44:26.614Z,98373.02
2018-03-27T13:47:00.220Z,98369.17
2018-03-27T13:49:33.761Z,98366.14
2018-03-27T13:52:07.549Z,98364.69
2018-03-27T13:54:41.084Z,98359.64
2018-03-27T13:57:14.655Z,98362.93
2018-03-27T13:59:48.318Z,98358.86
2018-03-27T14:02:21.849Z,98365.00
2018-03-27T14:04:55.563Z,98360.27
2018-03-27T14:07:29.188Z,98354.80
2018-03-27T14:10:02.751Z,98355.31
2018-03-27T14:12:36.383Z,98362.92
2018-03-27T14:15:10.172Z,98357.42
2018-03-27T14:17:43.758Z,98354.86
2018-03-27T14:20:17.294Z,98353.26
2018-03-27T14:22:50.888Z,98349.04
2018-03-27T14:25:24.477Z,98348.13
2018-03-27T14:27:58.238Z,98345.19
2018-03-27T14:30:31.836Z,98343.90
2018-03-27T14:33:05.579Z,98350.45
2018-03-27T14:35:39.211Z,98343.74
2018-03-27T14:38:12.952Z,98343.03
2018-03-27T14:40:46.468Z,98331.94
2018-03-27T14:43:20.117Z,98330.40
2018-03-27T14:45:53.754Z,98326.88
2018-03-27T14:48:27.407Z,98318.01
2018-03-27T14:51:01.065Z,98320.30
2018-03-27T14:53:34.611Z,98304.96
2018-03-27T14:56:08.295Z,98306.38
2018-03-27T14:58:41.767Z,98303.52
2018-03-27T15:01:15.333Z,98300.27
2018-03-27T15:03:48.965Z,98294.09
2018-03-27T15:09:25.104Z,98283.76
2018-03-27T15:11:58.643Z,98281.30
2018-03-27T15:14:32.455Z,98280.03
2018-03-27T15:17:06.134Z,98278.52
2018-03-27T15:19:39.683Z,98275.41
2018-03-27T15:22:13.353Z,98270.56
2018-03-27T15:24:47.071Z,98267.05
2018-03-27T15:27:20.700Z,98262.08
2018-03-27T15:29:54.516Z,98260.88
2018-03-27T15:32:28.160Z,98258.34
2018-03-27T15:35:01.743Z,98251.73
2018-03-27T15:37:35.301Z,98244.02
2018-03-27T15:40:08.998Z,98233.43
2018-03-27T15:42:42.523Z,98229.16
2018-03-27T15:45:16.190Z,98222.31
2018-03-27T15:47:49.759Z,98218.91
2018-03-27T15:50:23.399Z,98209.84
2018-03-27T15:52:56.954Z,98222.72
2018-03-27T15:55:30.725Z,98225.89
2018-03-27T15:58:04.429Z,98221.28
2018-03-27T16:00:38.093Z,98215.60
2018-03-27T16:03:11.714Z,98220.42
2018-03-27T16:05:45.308Z,98219.16
2018-03-27T16:08:19.013Z,98220.02
2018-03-27T16:10:52.741Z,98224.63
2018-03-27T16:13:26.431Z,98221.06
2018-03-27T16:16:00.138Z,98223.78
2018-03-27T16:18:33.744Z,98212.12
2018-03-27T16:21:07.299Z,98203.77
2018-03-27T16:23:40.830Z,98206.50
2018-03-27T16:26:14.515Z,98206.42
2018-03-27T16:28:48.058Z,98203.06
2018-03-27T16:31:21.741Z,98213.48
2018-03-27T16:33:55.346Z,98201.13
2018-03-27T16:36:28.858Z,98204.35
2018-03-27T16:39:02.557Z,98198.73
2018-03-27T16:41:36.356Z,98189.53
2018-03-27T16:44:10.077Z,98193.48
2018-03-27T16:46:43.679Z,98189.97
2018-03-27T16:49:17.361Z,98192.23
2018-03-27T16:51:51.095Z,98192.30
2018-03-27T16:54:24.914Z,98185.46
2018-03-27T16:56:58.715Z,98175.25
2018-03-27T16:59:32.338Z,98174.16
2018-03-27T17:02:06.028Z,98175.82
2018-03-27T17:04:39.537Z,98177.19
2018-03-27T17:07:13.213Z,98185.47
2018-03-27T17:09:57.724Z,98187.56
2018-03-27T17:12:31.290Z,98194.21
2018-03-27T17:15:07.813Z,98184.93
2018-03-27T17:17:41.347Z,98176.99
2018-03-27T17:20:15.052Z,98182.88
2018-03-27T17:22:48.609Z,98179.23
2018-03-27T17:25:22.185Z,98165.55
2018-03-27T17:27:55.706Z,98171.68
2018-03-27T17:30:29.255Z,98166.50
2018-03-27T17:33:03.032Z,98172.03
2018-03-27T17:35:36.603Z,98163.22
2018-03-27T17:38:10.214Z,98162.67
2018-03-27T17:40:43.735Z,98158.94
2018-03-27T17:43:17.462Z,98156.39
2018-03-27T17:45:51.103Z,98159.56
2018-03-27T17:48:24.664Z,98147.69
2018-03-27T17:50:58.317Z,98146.29
2018-03-27T17:53:31.945Z,98134.80
2018-03-27T17:56:05.482Z,98144.98
2018-03-27T17:58:39.071Z,98145.64
2018-03-27T18:01:12.761Z,98146.89
2018-03-27T18:03:46.305Z,98149.95
2018-03-27T18:06:19.975Z,98148.38
2018-03-27T18:08:53.726Z,98139.45
2018-03-27T18:11:27.361Z,98144.49
2018-03-27T18:14:00.974Z,98143.64
2018-03-27T18:16:34.478Z,98146.34
2018-03-27T18:19:08.134Z,98138.91
2018-03-27T18:21:41.828Z,98133.97
2018-03-27T18:24:15.412Z,98129.73
2018-03-27T18:26:49.156Z,98126.94
2018-03-27T18:29:23.037Z,98128.00
2018-03-27T18:31:56.571Z,98127.95
2018-03-27T18:34:30.123Z,98133.88
2018-03-27T18:37:03.652Z,98128.20
2018-03-27T18:39:37.282Z,98122.86
2018-03-27T18:42:10.825Z,98130.23
2018-03-27T18:44:44.384Z,98117.63
2018-03-27T18:47:17.907Z,98126.45
2018-03-27T18:49:51.553Z,98118.47
2018-03-27T18:52:25.098Z,98112.67
2018-03-27T18:54:58.856Z,98114.92
2018-03-27T18:57:32.408Z,98111.58
2018-03-27T19:00:06.145Z,98105.78
2018-03-27T19:02:39.758Z,98109.78
2018-03-27T19:05:13.330Z,98099.52
2018-03-27T19:07:46.982Z,98100.86
2018-03-27T19:10:20.555Z,98099.16
2018-03-27T19:12:54.242Z,98100.67
2018-03-27T19:15:27.968Z,98097.38
2018-03-27T19:18:01.620Z,98092.79
2018-03-27T19:20:35.220Z,98087.45
2018-03-27T19:23:08.891Z,98093.84
2018-03-27T19:25:42.485Z,98080.57
2018-03-27T19:28:16.094Z,98084.91
2018-03-27T19:30:49.748Z,98086.80
2018-03-27T19:33:23.406Z,98083.61
2018-03-27T19:35:57.256Z,98074.44
2018-03-27T19:38:31.077Z,98067.01
2018-03-27T19:41:04.843Z,98059.01
2018-03-27T19:43:38.492Z,98062.72
2018-03-27T19:46:12.139Z,98053.97
2018-03-27T19:48:45.812Z,98054.81
2018-03-27T19:51:19.544Z,98057.73
2018-03-27T19:53:53.083Z,98060.00
2018-03-27T19:56:26.685Z,98057.98
2018-03-27T19:59:00.313Z,98057.58
2018-03-27T20:01:33.951Z,98053.14
2018-03-27T20:04:07.809Z,98047.20
2018-03-27T20:06:41.591Z,98045.06
2018-03-27T20:09:15.262Z,98040.60
2018-03-27T20:11:48.997Z,98032.69
2018-03-27T20:14:22.622Z,98034.56
2018-03-27T20:16:56.283Z,98030.70
2018-03-27T20:19:29.887Z,98027.70
2018-03-27T20:22:03.433Z,98028.10
2018-03-27T20:24:37.130Z,98017.38
2018-03-27T20:27:10.795Z,98014.59
2018-03-27T20:29:44.450Z,98014.73
2018-03-27T20:32:18.115Z,98008.41
2018-03-27T20:34:51.739Z,98003.27
2018-03-27T20:37:25.366Z,97997.38
2018-03-27T20:39:59.053Z,97995.84
2018-03-27T20:42:32.734Z,97994.14
2018-03-27T20:45:06.355Z,97996.89
2018-03-27T20:47:39.939Z,97991.50
2018-03-27T20:50:13.687Z,97987.11
2018-03-27T20:52:47.399Z,97976.34
2018-03-27T20:55:21.157Z,97981.17
2018-03-27T20:57:54.976Z,97984.32
2018-03-27T21:00:28.632Z,97992.55
2018-03-27T21:03:02.265Z,97994.59
2018-03-27T21:05:35.828Z,97986.16
2018-03-27T21:08:09.405Z,97978.64
2018-03-27T21:10:43.200Z,97970.80
2018-03-27T21:13:16.930Z,97972.05
2018-03-27T21:15:50.688Z,97971.11
2018-03-27T21:18:24.274Z,97977.78
2018-03-27T21:20:58.080Z,97964.72
2018-03-27T21:23:31.886Z,97972.66
2018-03-27T21:26:05.428Z,97969.61
2018-03-27T21:28:38.981Z,97965.12
2018-03-27T21:31:13.079Z,97966.52
2018-03-27T21:33:46.941Z,97965.27
2018-03-27T21:36:20.730Z,97966.87
2018-03-27T21:38:54.230Z,97966.08
2018-03-27T21:41:27.772Z,97962.50
2018-03-27T21:44:01.391Z,97961.38
2018-03-27T21:46:35.068Z,97955.55
2018-03-27T21:49:08.605Z,97961.29
2018-03-27T21:51:42.453Z,97954.86
2018-03-27T21:54:16.070Z,97954.62
2018-03-27T21:56:49.851Z,97957.87
2018-03-27T21:59:23.499Z,97958.30
2018-03-27T22:01:57.144Z,97954.68
2018-03-27T22:04:30.770Z,97954.16
2018-03-27T22:07:04.338Z,97949.62
2018-03-27T22:09:38.093Z,97948.84
2018-03-27T22:12:11.642Z,97945.59
2018-03-27T22:14:45.342Z,97940.52
2018-03-27T22:17:19.015Z,97941.80
2018-03-27T22:19:52.592Z,97940.97
2018-03-27T22:22:26.175Z,97938.22
2018-03-27T22:25:00.043Z,97934.06
2018-03-27T22:27:33.757Z,97932.36
2018-03-27T22:30:07.433Z,97924.69
2018-03-27T22:32:41.023Z,97923.38
2018-03-27T22:35:14.668Z,97923.06
2018-03-27T22:37:48.458Z,97923.62
2018-03-27T22:40:22.198Z,97926.98
2018-03-27T22:42:56.052Z,97926.73
2018-03-27T22:45:29.819Z,97925.68
2018-03-27T22:48:03.465Z,97923.69
2018-03-27T22:50:37.258Z,97921.98
2018-03-27T22:53:10.940Z,97917.58
2018-03-27T22:55:44.621Z,97918.92
2018-03-27T22:58:18.195Z,97918.43
2018-03-27T23:00:52.052Z,97915.70
2018-03-27T23:03:25.882Z,97922.63
2018-03-27T23:05:59.628Z,97924.42
2018-03-27T23:08:33.226Z,97921.17
2018-03-27T23:11:06.929Z,97921.57
2018-03-27T23:13:40.595Z,97915.14
2018-03-27T23:16:14.208Z,97914.83
2018-03-27T23:18:48.036Z,97915.17
2018-03-27T23:21:21.649Z,97909.33
2018-03-27T23:23:55.518Z,97922.70
2018-03-27T23:26:29.088Z,97925.25
2018-03-27T23:29:02.671Z,97917.98
2018-03-27T23:31:36.306Z,97925.92
2018-03-27T23:34:09.936Z,97925.70
2018-03-27T23:36:43.523Z,97921.28
2018-03-27T23:39:17.358Z,97923.96
2018-03-27T23:41:50.962Z,97925.39
2018-03-27T23:44:24.493Z,97933.89
2018-03-27T23:50:17.876Z,97934.07
2018-03-27T23:52:51.507Z,97942.61
2018-03-27T23:55:25.244Z,97933.61
2018-03-27T23:57:58.833Z,97938.20
